createdAt,value
2023-04-25T19:45:48.370Z,87.30
2023-04-25T19:48:17.042Z,88.20
2023-04-25T19:50:45.074Z,88.10
2023-04-25T19:53:12.985Z,87.90
2023-04-25T19:55:41.299Z,87.90
2023-04-25T19:58:09.205Z,87.60
2023-04-25T20:00:37.084Z,86.70
2023-04-25T20:03:06.442Z,87.90
2023-04-25T20:05:34.363Z,87.60
2023-04-25T20:08:03.178Z,87.90
2023-04-25T20:10:31.157Z,87.70
2023-04-25T20:12:59.004Z,88.70
2023-04-25T20:15:27.268Z,87.80
2023-04-25T20:17:55.667Z,87.20
2023-04-25T20:20:24.996Z,87.20
2023-04-25T20:22:54.168Z,87.40
2023-04-25T20:25:22.313Z,87.60
2023-04-25T20:27:50.330Z,87.30
2023-04-25T20:30:18.566Z,87.30
2023-04-25T20:32:46.549Z,87.50
2023-04-25T20:35:15.003Z,87.60
2023-04-25T20:37:44.355Z,87.30
2023-04-25T20:40:18.334Z,87.90
2023-04-25T20:42:47.283Z,87.60
2023-04-25T20:45:16.010Z,87.10
2023-04-25T20:47:44.527Z,86.70
2023-04-25T20:50:12.720Z,87.10
2023-04-25T20:52:41.652Z,87.40
2023-04-25T20:55:11.958Z,87.70
2023-04-25T20:57:39.872Z,88.50
2023-04-25T21:00:17.766Z,88.30
2023-04-25T21:02:46.569Z,88.30
2023-04-25T21:05:14.671Z,88.50
2023-04-25T21:07:43.035Z,88.50
2023-04-25T21:10:12.883Z,88.20
2023-04-25T21:12:41.161Z,88.50
2023-04-25T21:15:09.833Z,88.10
2023-04-25T21:17:37.786Z,88.60
2023-04-25T21:20:10.227Z,88.70
2023-04-25T21:22:44.597Z,88.80
2023-04-25T21:25:15.128Z,88.00
2023-04-25T21:27:42.980Z,88.60
2023-04-25T21:30:11.640Z,88.10
2023-04-25T21:32:40.252Z,88.50
2023-04-25T21:35:08.630Z,88.30
2023-04-25T21:37:36.512Z,88.80
2023-04-25T21:40:05.856Z,88.90
2023-04-25T21:42:35.279Z,88.90
2023-04-25T21:45:03.478Z,89.00
2023-04-25T21:47:32.282Z,88.90
2023-04-25T21:50:00.378Z,88.50
2023-04-25T21:52:28.468Z,87.80
2023-04-25T21:54:56.780Z,88.60
2023-04-25T21:57:24.614Z,88.90
